Terminal Aerodrome Forecast
Issued by NWS

Home | Current Version | Previous Version | Text Only | Print | Product List | Glossary On
Versions: 1 2 3 4 5 6 7 8 9 10 11 12 13 14 15 16 17
000
FTUS43 KAPX 300154 AAA
TAFPLN
TAF AMD
KPLN 300154Z 3002/3024 23014G23KT 3SM -SN BR SCT008 OVC015
      TEMPO 3002/3004 1SM -SN BLSN BKN008
     FM300600 29016G26KT P6SM VCSH OVC025
     FM301200 30013G22KT P6SM BKN035=

USA.gov is the U.S. government's official web portal to all federal, state and local government web resources and services.